Time;durP1;ratioP1;P1;durP2;ratioP2;P2;SDS_P1;SDS_P2;PMS_P1;PMS_P2;Temp;Humidity;BMP_temperature;BMP_pressure;BME280_temperature;BME280_humidity;BME280_pressure;Samples;Min_cycle;Max_cycle;Signal;HPM_P1;HPM_P2
2021/11/22 00:00:38;;;;;;;6.20;2.78;;;7.70;99.90;;;;;;4926619;29;20024;-82
2021/11/22 00:03:05;;;;;;;9.57;3.42;;;7.80;99.90;;;;;;4927351;29;20024;-82
2021/11/22 00:05:31;;;;;;;17.60;5.20;;;7.70;99.90;;;;;;4927322;29;20083;-82
2021/11/22 00:07:57;;;;;;;5.63;3.38;;;7.70;99.90;;;;;;4927364;29;20320;-83
2021/11/22 00:10:23;;;;;;;7.68;3.47;;;7.70;99.90;;;;;;4925988;29;20028;-83
2021/11/22 00:12:49;;;;;;;7.05;4.00;;;7.70;99.90;;;;;;4927066;29;20091;-82
2021/11/22 00:15:16;;;;;;;8.65;3.83;;;7.70;99.90;;;;;;4927467;29;20020;-82
2021/11/22 00:17:42;;;;;;;6.03;3.45;;;7.70;99.90;;;;;;4926944;29;20479;-82
2021/11/22 00:20:12;;;;;;;8.27;4.10;;;7.70;99.90;;;;;;4926963;29;20241;-81
2021/11/22 00:22:38;;;;;;;15.13;5.95;;;7.70;99.90;;;;;;4927166;29;20024;-82
2021/11/22 00:25:04;;;;;;;5.70;3.08;;;7.70;99.90;;;;;;4925804;29;20016;-82
2021/11/22 00:27:31;;;;;;;10.27;3.55;;;7.70;99.90;;;;;;4927276;29;20028;-81
2021/11/22 00:29:57;;;;;;;9.63;4.00;;;7.60;99.90;;;;;;4926425;29;20017;-81
2021/11/22 00:32:22;;;;;;;8.45;4.03;;;7.60;99.90;;;;;;4926677;29;20145;-82
2021/11/22 00:34:54;;;;;;;8.45;3.35;;;7.70;99.90;;;;;;4926636;29;20072;-82
2021/11/22 00:37:22;;;;;;;6.32;3.13;;;7.60;99.90;;;;;;4926052;29;20258;-82
2021/11/22 00:39:48;;;;;;;8.65;3.45;;;7.60;99.90;;;;;;4926478;29;20036;-82
2021/11/22 00:42:15;;;;;;;6.32;2.72;;;7.60;99.90;;;;;;4927078;29;20023;-82
2021/11/22 00:44:41;;;;;;;4.63;2.42;;;7.60;99.90;;;;;;4925489;29;20284;-82
2021/11/22 00:47:08;;;;;;;3.67;2.40;;;7.70;99.90;;;;;;4926592;29;20011;-82
2021/11/22 00:49:36;;;;;;;7.90;3.00;;;7.70;99.90;;;;;;4926609;29;20095;-83
2021/11/22 00:52:04;;;;;;;7.00;2.78;;;7.70;99.90;;;;;;4926500;29;20087;-83
2021/11/22 00:54:30;;;;;;;6.30;2.65;;;7.80;99.90;;;;;;4926331;29;20385;-82
2021/11/22 00:56:56;;;;;;;4.97;2.90;;;7.80;99.90;;;;;;4926552;29;20064;-83
2021/11/22 00:59:21;;;;;;;8.90;2.70;;;7.80;99.90;;;;;;4926560;29;20028;-83
2021/11/22 01:01:50;;;;;;;25.35;5.10;;;7.80;99.90;;;;;;4926505;29;20047;-83
2021/11/22 01:04:20;;;;;;;6.18;3.35;;;7.80;99.90;;;;;;4926178;29;20173;-83
2021/11/22 01:06:46;;;;;;;8.70;3.72;;;7.80;99.90;;;;;;4926324;29;20251;-83
2021/11/22 01:09:12;;;;;;;48.95;7.97;;;7.80;99.90;;;;;;4926595;29;20034;-83
2021/11/22 01:11:38;;;;;;;5.60;3.50;;;7.90;99.90;;;;;;4926220;29;20200;-83
2021/11/22 01:14:04;;;;;;;5.97;3.65;;;7.90;99.90;;;;;;4925671;29;20066;-83
2021/11/22 01:16:30;;;;;;;10.50;3.80;;;7.90;99.90;;;;;;4926223;29;20240;-83
2021/11/22 01:18:58;;;;;;;6.57;3.72;;;7.90;99.90;;;;;;4926145;29;20236;-83
2021/11/22 01:21:24;;;;;;;9.43;4.65;;;7.90;99.90;;;;;;4926416;29;20051;-83
2021/11/22 01:23:50;;;;;;;7.88;4.00;;;7.90;99.90;;;;;;4925805;29;20032;-83
2021/11/22 01:26:16;;;;;;;9.48;5.35;;;7.90;99.90;;;;;;4925890;29;20100;-83
2021/11/22 01:28:42;;;;;;;13.15;5.50;;;7.80;99.90;;;;;;4925981;29;20023;-83
2021/11/22 01:31:07;;;;;;;11.48;5.50;;;7.80;99.90;;;;;;4925804;29;20020;-83
2021/11/22 01:33:33;;;;;;;10.93;5.97;;;7.80;99.90;;;;;;4925682;29;20040;-82
2021/11/22 01:35:59;;;;;;;16.05;6.78;;;7.80;99.90;;;;;;4924756;29;20241;-82
2021/11/22 01:38:25;;;;;;;15.23;7.10;;;7.80;99.90;;;;;;4925591;29;20024;-83
2021/11/22 01:40:51;;;;;;;14.77;7.82;;;7.80;99.90;;;;;;4924625;29;20020;-82
2021/11/22 01:43:17;;;;;;;18.35;8.13;;;7.80;99.90;;;;;;4925644;29;20046;-82
2021/11/22 01:45:48;;;;;;;12.73;7.80;;;7.70;99.90;;;;;;4925591;29;20012;-82
2021/11/22 01:48:16;;;;;;;17.95;8.40;;;7.80;99.90;;;;;;4925334;29;20099;-82
2021/11/22 01:50:43;;;;;;;16.95;8.73;;;7.80;99.90;;;;;;4925119;29;20312;-82
2021/11/22 01:53:09;;;;;;;16.33;8.30;;;7.80;99.90;;;;;;4925657;29;20099;-83
2021/11/22 01:55:35;;;;;;;21.67;9.30;;;7.80;99.90;;;;;;4925327;29;20263;-82
2021/11/22 01:58:02;;;;;;;26.00;10.82;;;7.90;99.90;;;;;;4925366;29;20024;-83
2021/11/22 02:00:30;;;;;;;19.08;10.00;;;7.90;99.90;;;;;;4925690;29;20014;-82
2021/11/22 02:02:57;;;;;;;19.63;10.40;;;7.90;99.90;;;;;;4925297;29;20430;-82
2021/11/22 02:05:23;;;;;;;19.98;11.40;;;7.90;99.90;;;;;;4925452;29;20024;-83
2021/11/22 02:07:50;;;;;;;20.42;10.80;;;7.90;99.90;;;;;;4925294;29;20020;-82
2021/11/22 02:10:16;;;;;;;17.27;10.60;;;7.90;99.90;;;;;;4925205;29;20030;-82
2021/11/22 02:12:42;;;;;;;17.17;10.40;;;7.90;99.90;;;;;;4923992;29;20243;-82
2021/11/22 02:15:10;;;;;;;20.98;10.05;;;8.00;99.90;;;;;;4925256;29;20125;-82
2021/11/22 02:17:39;;;;;;;17.02;10.15;;;8.00;99.90;;;;;;4924151;29;20211;-82
2021/11/22 02:20:08;;;;;;;17.95;10.23;;;8.00;99.90;;;;;;4925186;29;20065;-83
2021/11/22 02:22:34;;;;;;;15.10;9.45;;;8.00;99.90;;;;;;4923716;29;20014;-82
2021/11/22 02:25:03;;;;;;;19.98;10.00;;;7.90;99.90;;;;;;4925055;29;20028;-82
2021/11/22 02:27:29;;;;;;;16.60;7.88;;;8.00;99.90;;;;;;4924742;29;20020;-82
2021/11/22 02:29:55;;;;;;;13.63;8.23;;;8.00;99.90;;;;;;4924984;29;20095;-84
2021/11/22 02:32:20;;;;;;;12.43;7.78;;;8.00;99.90;;;;;;4923797;29;20023;-85
2021/11/22 02:34:46;;;;;;;16.33;7.50;;;8.00;99.90;;;;;;4924897;29;20020;-83
2021/11/22 02:37:12;;;;;;;11.48;7.05;;;8.00;99.90;;;;;;4925175;29;20012;-83
2021/11/22 02:39:38;;;;;;;15.48;6.80;;;8.00;99.90;;;;;;4924810;29;20024;-83
2021/11/22 02:42:12;;;;;;;12.27;6.47;;;8.00;99.90;;;;;;4924982;29;20032;-83
2021/11/22 02:44:38;;;;;;;13.35;6.32;;;8.10;99.90;;;;;;4924921;29;20017;-83
2021/11/22 02:47:04;;;;;;;10.38;5.97;;;8.00;99.90;;;;;;4924791;29;20024;-83
2021/11/22 02:49:29;;;;;;;9.23;5.47;;;8.00;99.90;;;;;;4924794;29;20024;-83
2021/11/22 02:51:55;;;;;;;13.45;5.88;;;8.00;99.90;;;;;;4924607;29;20055;-83
2021/11/22 02:54:21;;;;;;;14.25;5.38;;;8.10;99.90;;;;;;4924720;29;20181;-83
2021/11/22 02:56:46;;;;;;;16.40;4.95;;;8.10;99.90;;;;;;4924598;29;20044;-82
2021/11/22 02:59:12;;;;;;;12.30;5.57;;;8.00;99.90;;;;;;4924763;29;20055;-83
2021/11/22 03:01:38;;;;;;;11.40;5.43;;;8.10;99.90;;;;;;4927674;29;20048;-83
2021/11/22 03:04:05;;;;;;;10.48;5.60;;;8.10;99.90;;;;;;4928429;29;20335;-83
2021/11/22 03:06:30;;;;;;;10.18;5.22;;;8.10;99.90;;;;;;4927216;29;20100;-83
2021/11/22 03:08:56;;;;;;;13.38;5.30;;;8.10;99.90;;;;;;4928187;29;20040;-83
2021/11/22 03:11:22;;;;;;;14.18;5.63;;;8.10;99.90;;;;;;4928227;29;20023;-83
2021/11/22 03:13:48;;;;;;;13.52;5.30;;;8.10;99.90;;;;;;4928152;29;20031;-82
2021/11/22 03:16:16;;;;;;;9.63;5.03;;;8.10;99.90;;;;;;4928147;29;20028;-83
2021/11/22 03:18:45;;;;;;;11.70;5.75;;;8.10;99.90;;;;;;4928425;29;20031;-82
2021/11/22 03:21:11;;;;;;;11.25;5.28;;;8.10;99.90;;;;;;4928375;29;20020;-82
2021/11/22 03:23:39;;;;;;;9.13;5.30;;;8.20;99.90;;;;;;4927915;29;20060;-83
2021/11/22 03:26:05;;;;;;;11.52;5.78;;;8.10;99.90;;;;;;4928024;29;20036;-82
2021/11/22 03:28:31;;;;;;;11.13;5.47;;;8.10;99.90;;;;;;4928006;29;20109;-82
2021/11/22 03:30:57;;;;;;;12.98;5.90;;;8.10;99.90;;;;;;4928379;29;20040;-82
2021/11/22 03:33:23;;;;;;;15.95;5.57;;;8.20;99.90;;;;;;4928125;29;20028;-82
2021/11/22 03:35:53;;;;;;;12.80;4.70;;;8.20;99.90;;;;;;4927961;29;20099;-82
2021/11/22 03:38:20;;;;;;;13.27;4.85;;;8.10;99.90;;;;;;4927697;29;20020;-82
2021/11/22 03:40:48;;;;;;;13.30;4.55;;;8.00;99.90;;;;;;4927830;29;20012;-82
2021/11/22 03:43:17;;;;;;;11.32;4.82;;;8.10;99.90;;;;;;4927748;29;20248;-82
2021/11/22 03:45:48;;;;;;;14.70;5.93;;;8.00;99.90;;;;;;4927914;29;20055;-82
2021/11/22 03:48:14;;;;;;;14.35;5.03;;;8.00;99.90;;;;;;4927734;29;20079;-82
2021/11/22 03:50:41;;;;;;;10.55;4.78;;;8.00;99.90;;;;;;4926608;29;20027;-82
2021/11/22 03:53:06;;;;;;;14.85;4.65;;;8.00;99.90;;;;;;4926121;29;20323;-82
2021/11/22 03:55:32;;;;;;;13.90;5.07;;;8.00;99.90;;;;;;4927609;29;20111;-82
2021/11/22 03:57:58;;;;;;;9.15;4.55;;;8.00;99.90;;;;;;4927472;29;20036;-82
2021/11/22 04:00:24;;;;;;;10.77;4.50;;;8.00;99.90;;;;;;4927615;29;20026;-82
2021/11/22 04:02:50;;;;;;;17.50;4.78;;;8.00;99.90;;;;;;4927790;29;20020;-82
2021/11/22 04:05:16;;;;;;;14.80;4.93;;;8.00;99.90;;;;;;4927454;29;20103;-82
2021/11/22 04:07:42;;;;;;;11.68;4.57;;;8.00;99.90;;;;;;4927292;29;20083;-81
2021/11/22 04:10:08;;;;;;;13.13;5.13;;;7.90;99.90;;;;;;4927341;29;20316;-82
2021/11/22 04:12:35;;;;;;;13.90;6.07;;;7.90;99.90;;;;;;4925951;29;20028;-82
2021/11/22 04:15:02;;;;;;;13.88;4.93;;;8.00;99.90;;;;;;4927245;29;20095;-82
2021/11/22 04:17:27;;;;;;;13.27;4.70;;;7.90;99.90;;;;;;4927123;29;20009;-82
2021/11/22 04:19:53;;;;;;;10.55;5.18;;;8.00;99.90;;;;;;4927069;29;20189;-82
2021/11/22 04:22:19;;;;;;;13.85;5.68;;;8.00;99.90;;;;;;4927106;29;20047;-82
2021/11/22 04:24:45;;;;;;;11.57;5.38;;;7.90;99.90;;;;;;4926895;29;20020;-82
2021/11/22 04:27:12;;;;;;;15.57;5.65;;;7.90;99.90;;;;;;4926998;29;20264;-82
2021/11/22 04:29:40;;;;;;;13.02;5.82;;;8.00;99.90;;;;;;4926975;29;20091;-81
2021/11/22 04:32:07;;;;;;;11.68;5.55;;;7.90;99.90;;;;;;4927092;29;20081;-82
2021/11/22 04:34:34;;;;;;;10.80;6.35;;;8.00;99.90;;;;;;4927201;29;20069;-82
2021/11/22 04:37:00;;;;;;;9.95;5.10;;;8.00;99.90;;;;;;4926819;29;20024;-82
2021/11/22 04:39:26;;;;;;;15.18;6.20;;;8.00;99.90;;;;;;4926537;29;20083;-82
2021/11/22 04:41:51;;;;;;;9.18;5.60;;;8.00;99.90;;;;;;4926685;29;20375;-82
2021/11/22 04:44:17;;;;;;;14.25;6.53;;;7.90;99.90;;;;;;4926737;29;20319;-82
2021/11/22 04:46:43;;;;;;;9.88;5.40;;;7.90;99.90;;;;;;4925803;29;20036;-82
2021/11/22 04:49:09;;;;;;;14.10;6.03;;;7.90;99.90;;;;;;4926507;29;20091;-82
2021/11/22 04:51:36;;;;;;;11.35;5.82;;;7.90;99.90;;;;;;4926451;29;20052;-82
2021/11/22 04:54:01;;;;;;;10.95;5.38;;;8.00;99.90;;;;;;4926131;29;20075;-81
2021/11/22 04:56:27;;;;;;;14.27;5.65;;;8.00;99.90;;;;;;4926399;29;20052;-81
2021/11/22 04:58:53;;;;;;;11.13;5.90;;;8.00;99.90;;;;;;4926463;29;20193;-81
2021/11/22 05:01:19;;;;;;;12.18;5.70;;;7.90;99.90;;;;;;4926463;29;20020;-82
2021/11/22 05:03:48;;;;;;;14.52;6.20;;;7.90;99.90;;;;;;4926345;29;20031;-82
2021/11/22 05:06:14;;;;;;;10.57;5.85;;;7.90;99.90;;;;;;4926754;29;20028;-82
2021/11/22 05:08:39;;;;;;;15.23;6.65;;;7.90;99.90;;;;;;4926045;29;20065;-82
2021/11/22 05:11:05;;;;;;;10.88;5.93;;;7.90;99.90;;;;;;4926270;29;20024;-82
2021/11/22 05:13:31;;;;;;;19.48;6.32;;;7.90;99.90;;;;;;4926114;29;20032;-82
2021/11/22 05:15:57;;;;;;;13.55;6.13;;;7.90;99.90;;;;;;4926094;29;20064;-82
2021/11/22 05:18:23;;;;;;;10.35;6.25;;;7.90;99.90;;;;;;4928478;29;20044;-82
2021/11/22 05:20:48;;;;;;;13.32;6.15;;;8.00;99.90;;;;;;4944685;29;20366;-82
2021/11/22 05:23:15;;;;;;;9.75;6.20;;;7.90;99.90;;;;;;4927096;29;20083;-82
2021/11/22 05:25:41;;;;;;;11.00;5.95;;;7.90;99.90;;;;;;4925322;29;20075;-82
2021/11/22 05:28:07;;;;;;;12.35;6.32;;;7.90;99.90;;;;;;4924899;29;20035;-82
2021/11/22 05:30:33;;;;;;;11.90;6.25;;;8.00;99.90;;;;;;4941060;29;20083;-82
2021/11/22 05:33:01;;;;;;;13.05;6.35;;;8.00;99.90;;;;;;4944529;29;20326;-82
2021/11/22 05:35:28;;;;;;;14.80;7.00;;;7.90;99.90;;;;;;4944120;29;20051;-82
2021/11/22 05:37:55;;;;;;;13.15;6.65;;;8.00;99.90;;;;;;4940563;29;20012;-82
2021/11/22 05:40:22;;;;;;;11.02;6.05;;;8.00;99.90;;;;;;4944185;29;20028;-82
2021/11/22 05:42:48;;;;;;;11.25;6.50;;;8.00;99.90;;;;;;4942893;29;20034;-82
2021/11/22 05:45:15;;;;;;;12.63;6.13;;;8.00;99.90;;;;;;4943768;29;20219;-82
2021/11/22 05:47:40;;;;;;;13.80;6.18;;;8.00;99.90;;;;;;4925285;29;20075;-82
2021/11/22 05:50:08;;;;;;;10.63;5.65;;;8.00;99.90;;;;;;4928958;29;20244;-82
2021/11/22 05:52:36;;;;;;;11.32;6.53;;;8.00;99.90;;;;;;4942737;29;20020;-81
2021/11/22 05:55:11;;;;;;;12.30;6.38;;;7.90;99.90;;;;;;4943553;29;20058;-82
2021/11/22 05:57:37;;;;;;;12.85;5.82;;;8.00;99.90;;;;;;4943731;29;20019;-82
2021/11/22 06:00:05;;;;;;;10.63;5.93;;;7.90;99.90;;;;;;4943496;29;20119;-81
2021/11/22 06:02:30;;;;;;;10.90;6.00;;;7.90;99.90;;;;;;4942843;29;20265;-82
2021/11/22 06:04:56;;;;;;;11.30;6.43;;;7.90;99.90;;;;;;4943341;29;20027;-82
2021/11/22 06:07:22;;;;;;;11.68;6.00;;;7.80;99.90;;;;;;4943712;29;20042;-81
2021/11/22 06:09:47;;;;;;;12.07;5.88;;;7.80;99.90;;;;;;4943667;29;20023;-84
2021/11/22 06:12:13;;;;;;;11.05;6.00;;;7.90;99.90;;;;;;4944269;29;20030;-83
2021/11/22 06:14:39;;;;;;;16.65;6.40;;;7.90;99.90;;;;;;4944182;29;20327;-84
2021/11/22 06:17:05;;;;;;;11.85;5.70;;;7.90;99.90;;;;;;4944254;29;20254;-82
2021/11/22 06:19:31;;;;;;;18.20;6.28;;;7.90;99.90;;;;;;4944273;29;20020;-81
2021/11/22 06:21:56;;;;;;;12.82;5.70;;;7.80;99.90;;;;;;4944389;29;20131;-84
2021/11/22 06:24:23;;;;;;;8.45;5.65;;;7.90;99.90;;;;;;4944085;29;20032;-84
2021/11/22 06:26:50;;;;;;;11.13;5.50;;;7.90;99.90;;;;;;4944361;29;20028;-84
2021/11/22 06:29:17;;;;;;;11.48;6.18;;;7.90;99.90;;;;;;4944067;29;20070;-84
2021/11/22 06:31:44;;;;;;;10.45;5.60;;;7.80;99.90;;;;;;4943876;29;20028;-84
2021/11/22 06:34:10;;;;;;;9.52;5.57;;;7.80;99.90;;;;;;4943779;29;20055;-84
2021/11/22 06:36:36;;;;;;;12.30;6.70;;;7.90;99.90;;;;;;4947503;29;20027;-84
2021/11/22 06:39:03;;;;;;;11.02;5.80;;;7.80;99.90;;;;;;4947969;29;20043;-84
2021/11/22 06:41:29;;;;;;;10.30;5.82;;;7.90;99.90;;;;;;4947734;29;20031;-84
2021/11/22 06:43:54;;;;;;;15.15;7.20;;;7.80;99.90;;;;;;4948105;29;20023;-87
2021/11/22 06:46:20;;;;;;;12.85;7.50;;;7.80;99.90;;;;;;4947093;29;20016;-87
2021/11/22 06:48:46;;;;;;;12.38;7.13;;;7.90;99.90;;;;;;4947143;29;20036;-87
2021/11/22 06:51:12;;;;;;;14.73;7.28;;;7.90;99.90;;;;;;4941316;29;20023;-87
2021/11/22 06:53:37;;;;;;;19.45;7.15;;;7.80;99.90;;;;;;4936361;29;20480;-87
2021/11/22 06:56:03;;;;;;;15.65;7.00;;;7.80;99.90;;;;;;4935025;29;20147;-87
2021/11/22 06:58:29;;;;;;;13.48;6.78;;;7.80;99.90;;;;;;4935012;29;20040;-88
2021/11/22 07:00:54;;;;;;;11.80;6.60;;;7.80;99.90;;;;;;4934981;29;20396;-87
2021/11/22 07:03:21;;;;;;;14.48;6.40;;;7.80;99.90;;;;;;4934919;29;20448;-88
2021/11/22 07:05:48;;;;;;;12.98;6.95;;;7.80;99.90;;;;;;4934711;29;20028;-88
2021/11/22 07:08:14;;;;;;;13.18;6.53;;;7.80;99.90;;;;;;4935559;29;20082;-88
2021/11/22 07:10:39;;;;;;;13.85;7.00;;;7.80;99.90;;;;;;4935730;29;20032;-88
2021/11/22 07:13:05;;;;;;;11.65;6.78;;;7.90;99.90;;;;;;4934979;29;20118;-88
2021/11/22 07:15:36;;;;;;;12.38;6.95;;;7.80;99.90;;;;;;4935022;29;20028;-88
2021/11/22 07:18:03;;;;;;;11.45;7.07;;;7.80;99.90;;;;;;4935390;29;20106;-88
2021/11/22 07:20:28;;;;;;;13.00;7.57;;;7.80;99.90;;;;;;4935466;29;20098;-88
2021/11/22 07:22:54;;;;;;;11.07;7.28;;;7.90;99.90;;;;;;4935784;29;20103;-86
2021/11/22 07:25:20;;;;;;;19.23;7.30;;;7.90;99.90;;;;;;4936016;29;20024;-87
2021/11/22 07:27:46;;;;;;;12.70;7.40;;;7.90;99.90;;;;;;4936004;29;20491;-88
2021/11/22 07:30:18;;;;;;;12.43;7.13;;;7.90;99.90;;;;;;4935889;29;20034;-88
2021/11/22 07:32:44;;;;;;;14.23;7.43;;;7.90;99.90;;;;;;4936134;29;20382;-88
2021/11/22 07:35:10;;;;;;;13.20;7.50;;;7.90;99.90;;;;;;4934498;29;20123;-88
2021/11/22 07:37:36;;;;;;;12.15;7.13;;;7.90;99.90;;;;;;4934347;29;20063;-88
2021/11/22 07:40:03;;;;;;;11.27;7.22;;;7.90;99.90;;;;;;4936063;29;20480;-88
2021/11/22 07:42:30;;;;;;;10.73;6.55;;;7.80;99.90;;;;;;4935605;29;20039;-88
2021/11/22 07:44:56;;;;;;;12.20;7.53;;;7.90;99.90;;;;;;4934310;29;20055;-88
2021/11/22 07:47:21;;;;;;;11.93;7.95;;;7.90;99.90;;;;;;4935358;29;20070;-88
2021/11/22 07:49:47;;;;;;;12.02;7.32;;;7.90;99.90;;;;;;4934361;29;20555;-88
2021/11/22 07:52:13;;;;;;;13.38;7.32;;;7.90;99.90;;;;;;4934238;29;20042;-88
2021/11/22 07:54:39;;;;;;;12.20;7.43;;;7.90;99.90;;;;;;4933870;29;20075;-85
2021/11/22 07:57:05;;;;;;;13.40;7.97;;;7.80;99.90;;;;;;4935268;29;20074;-85
2021/11/22 07:59:30;;;;;;;12.38;7.03;;;7.80;99.90;;;;;;4935323;29;20106;-87
2021/11/22 08:01:56;;;;;;;13.07;6.72;;;7.80;99.90;;;;;;4935575;29;20195;-87
2021/11/22 08:04:22;;;;;;;12.55;6.88;;;7.90;99.90;;;;;;4934046;29;20130;-88
2021/11/22 08:06:50;;;;;;;17.02;7.43;;;7.80;99.90;;;;;;4933936;29;20480;-88
2021/11/22 08:09:43;;;;;;;16.08;6.93;;;7.80;99.90;;;;;;4935232;29;20024;-88
2021/11/22 08:14:36;;;;;;;14.68;7.95;;;7.80;99.90;;;;;;4935028;29;20031;-88
2021/11/22 08:17:04;;;;;;;13.73;6.88;;;7.80;99.90;;;;;;4935054;29;20032;-88
2021/11/22 08:19:30;;;;;;;13.60;7.32;;;7.80;99.90;;;;;;4935093;29;20039;-88
2021/11/22 08:21:55;;;;;;;15.98;6.78;;;7.80;99.90;;;;;;4935438;29;20028;-88
2021/11/22 08:24:26;;;;;;;15.43;7.57;;;7.90;99.90;;;;;;4935213;29;20461;-88
2021/11/22 08:26:52;;;;;;;11.32;6.72;;;7.80;99.90;;;;;;4936805;29;20473;-88
2021/11/22 08:29:18;;;;;;;16.95;7.65;;;7.90;99.90;;;;;;4934596;29;20032;-88
2021/11/22 08:31:44;;;;;;;14.48;7.43;;;7.80;99.90;;;;;;4934967;29;20028;-88
2021/11/22 08:34:10;;;;;;;12.00;7.63;;;7.90;99.90;;;;;;4933156;29;20042;-88
2021/11/22 08:36:35;;;;;;;16.10;8.15;;;7.90;99.90;;;;;;4934702;29;20020;-88
2021/11/22 08:39:02;;;;;;;13.60;7.82;;;7.90;99.90;;;;;;4934504;29;20027;-88
2021/11/22 08:41:27;;;;;;;17.77;8.60;;;8.00;99.90;;;;;;4934613;29;20011;-88
2021/11/22 08:43:53;;;;;;;16.10;7.93;;;7.90;99.90;;;;;;4934594;29;20094;-88
2021/11/22 08:46:19;;;;;;;15.50;7.97;;;7.90;99.90;;;;;;4933135;29;20026;-88
2021/11/22 08:48:44;;;;;;;13.60;7.68;;;8.00;99.90;;;;;;4933001;29;20105;-88
2021/11/22 08:51:10;;;;;;;14.68;8.30;;;8.00;99.90;;;;;;4932966;29;20024;-88
2021/11/22 08:53:36;;;;;;;15.35;8.43;;;8.00;99.90;;;;;;4932733;29;20047;-88
2021/11/22 08:56:02;;;;;;;14.40;7.90;;;8.10;99.90;;;;;;4932652;29;20316;-88
2021/11/22 08:58:28;;;;;;;16.75;8.48;;;8.10;99.90;;;;;;4932241;29;20126;-88
2021/11/22 09:00:54;;;;;;;16.42;9.07;;;8.10;99.90;;;;;;4934252;29;20151;-87
2021/11/22 09:03:19;;;;;;;13.95;7.60;;;8.20;99.90;;;;;;4934248;29;20031;-88
2021/11/22 09:05:45;;;;;;;13.25;8.65;;;8.20;99.90;;;;;;4932719;29;20550;-88
2021/11/22 09:08:11;;;;;;;15.00;7.70;;;8.10;99.90;;;;;;4933820;29;20172;-88
2021/11/22 09:10:38;;;;;;;18.08;7.65;;;8.10;99.90;;;;;;4932579;29;20115;-88
2021/11/22 09:13:04;;;;;;;15.55;7.47;;;8.10;99.90;;;;;;4933795;29;20111;-88
2021/11/22 09:15:30;;;;;;;15.27;8.60;;;8.10;99.90;;;;;;4934279;29;20028;-88
2021/11/22 09:17:57;;;;;;;17.50;9.30;;;8.10;99.90;;;;;;4933900;29;20023;-88
2021/11/22 09:20:23;;;;;;;19.35;9.32;;;8.10;99.90;;;;;;4934180;29;20520;-88
2021/11/22 09:22:50;;;;;;;18.73;8.40;;;8.10;99.90;;;;;;4933753;29;20435;-88
2021/11/22 09:25:16;;;;;;;13.50;7.22;;;8.10;99.90;;;;;;4933688;29;20032;-88
2021/11/22 09:27:41;;;;;;;14.63;7.82;;;8.10;99.90;;;;;;4933630;29;20031;-88
2021/11/22 09:30:08;;;;;;;15.65;7.70;;;8.10;99.90;;;;;;4933609;29;20035;-86
2021/11/22 09:32:34;;;;;;;14.10;7.18;;;8.10;99.90;;;;;;4933416;29;20370;-89
2021/11/22 09:35:00;;;;;;;16.58;7.15;;;8.10;99.90;;;;;;4933516;29;20091;-87
2021/11/22 09:37:25;;;;;;;18.27;7.50;;;8.10;99.90;;;;;;4932305;29;20032;-88
2021/11/22 09:39:52;;;;;;;17.30;7.85;;;8.10;99.90;;;;;;4933350;29;20063;-86
2021/11/22 09:42:18;;;;;;;15.30;6.38;;;8.20;99.90;;;;;;4933468;29;20477;-86
2021/11/22 09:44:44;;;;;;;12.02;6.65;;;8.20;99.90;;;;;;4933270;29;20064;-88
2021/11/22 09:47:10;;;;;;;17.10;6.53;;;8.10;99.90;;;;;;4931961;29;20055;-88
2021/11/22 09:49:36;;;;;;;14.52;7.03;;;8.20;99.90;;;;;;4933252;29;20439;-87
2021/11/22 09:52:03;;;;;;;12.13;6.07;;;8.10;99.90;;;;;;4933297;29;20028;-89
2021/11/22 09:54:28;;;;;;;14.73;5.75;;;8.00;99.90;;;;;;4933109;29;20075;-88
2021/11/22 09:56:54;;;;;;;34.13;12.85;;;8.00;99.90;;;;;;4933149;29;20054;-88
2021/11/22 09:59:22;;;;;;;11.15;5.38;;;8.00;99.90;;;;;;4933231;29;20036;-88
2021/11/22 10:01:53;;;;;;;10.20;5.18;;;7.90;99.90;;;;;;4933118;29;20043;-89
2021/11/22 10:04:19;;;;;;;14.38;5.03;;;8.00;99.90;;;;;;4931603;29;20103;-88
2021/11/22 10:06:59;;;;;;;15.50;4.68;;;8.00;99.90;;;;;;4933496;29;20019;-88
2021/11/22 10:09:46;;;;;;;15.75;5.75;;;8.00;99.90;;;;;;4932807;29;20035;-88
2021/11/22 10:12:16;;;;;;;13.13;4.38;;;8.00;99.90;;;;;;4933074;29;20071;-88
2021/11/22 10:14:44;;;;;;;13.73;4.38;;;8.00;99.90;;;;;;4931726;29;20035;-88
2021/11/22 10:17:23;;;;;;;12.35;4.22;;;7.90;99.90;;;;;;4933380;29;20046;-88
2021/11/22 10:20:10;;;;;;;15.48;4.68;;;8.00;99.90;;;;;;4933029;29;20093;-88
2021/11/22 10:23:01;;;;;;;15.18;4.30;;;8.00;99.90;;;;;;4931435;29;20040;-88
2021/11/22 10:25:36;;;;;;;12.40;4.20;;;8.10;99.90;;;;;;4932965;29;20560;-88
2021/11/22 10:28:21;;;;;;;14.85;4.95;;;8.20;99.90;;;;;;4932897;29;20440;-88
2021/11/22 10:31:05;;;;;;;11.50;4.20;;;8.30;99.90;;;;;;4932872;29;20035;-88
2021/11/22 10:33:34;;;;;;;14.13;3.97;;;8.40;99.90;;;;;;4932988;29;20039;-88
2021/11/22 10:36:03;;;;;;;13.40;4.93;;;8.40;99.90;;;;;;4932977;29;20111;-88
2021/11/22 10:38:35;;;;;;;11.65;4.10;;;8.50;99.90;;;;;;4932643;29;20072;-88
2021/11/22 10:41:07;;;;;;;10.88;4.93;;;8.60;99.90;;;;;;4931474;29;20082;-88
2021/11/22 10:43:50;;;;;;;9.40;4.00;;;8.60;99.90;;;;;;4932679;29;20043;-88
2021/11/22 10:46:23;;;;;;;14.32;4.22;;;8.70;99.90;;;;;;4932672;29;20032;-88
2021/11/22 10:48:51;;;;;;;13.15;4.20;;;8.70;99.90;;;;;;4932909;29;20035;-88
2021/11/22 10:51:24;;;;;;;13.50;3.90;;;8.80;99.90;;;;;;4931280;29;20024;-88
2021/11/22 10:53:55;;;;;;;11.27;3.85;;;8.70;99.90;;;;;;4932254;29;20071;-85
2021/11/22 10:56:23;;;;;;;13.60;4.50;;;8.70;99.90;;;;;;4931086;29;20064;-86
2021/11/22 10:59:04;;;;;;;11.57;4.20;;;8.80;99.90;;;;;;4932659;29;20039;-86
2021/11/22 11:01:54;;;;;;;16.20;4.15;;;8.80;99.90;;;;;;4928081;29;20024;-86
2021/11/22 11:04:31;;;;;;;13.60;4.63;;;8.80;99.90;;;;;;4913658;29;20464;-86
2021/11/22 11:07:08;;;;;;;14.02;4.13;;;8.90;99.90;;;;;;4912554;29;20425;-86
2021/11/22 11:09:38;;;;;;;12.43;3.83;;;8.90;99.90;;;;;;4913635;29;20078;-86
2021/11/22 11:12:03;;;;;;;15.63;3.85;;;9.00;99.90;;;;;;4913602;29;20072;-86
2021/11/22 11:14:31;;;;;;;19.40;4.13;;;9.10;99.90;;;;;;4913291;29;20509;-86
2021/11/22 11:17:11;;;;;;;12.05;3.92;;;9.30;99.90;;;;;;4913352;29;20020;-86
2021/11/22 11:19:40;;;;;;;10.65;3.83;;;9.40;99.90;;;;;;4913272;29;20032;-86
2021/11/22 11:22:06;;;;;;;10.00;3.55;;;9.40;99.90;;;;;;4916849;29;20059;-87
2021/11/22 11:24:32;;;;;;;16.13;4.70;;;9.40;99.90;;;;;;4916945;29;20103;-86
2021/11/22 11:26:58;;;;;;;14.93;3.95;;;9.30;99.90;;;;;;4935349;29;20031;-86
2021/11/22 11:29:25;;;;;;;9.18;4.10;;;9.30;99.90;;;;;;4934541;29;20031;-86
2021/11/22 11:31:50;;;;;;;12.15;3.97;;;9.30;99.90;;;;;;4934412;29;20028;-86
2021/11/22 11:34:17;;;;;;;13.93;4.10;;;9.20;99.90;;;;;;4934377;29;20524;-86
2021/11/22 11:36:58;;;;;;;12.23;3.80;;;9.00;99.90;;;;;;4935654;29;20023;-86
2021/11/22 11:39:24;;;;;;;12.73;4.00;;;9.00;99.90;;;;;;4935821;29;20106;-86
2021/11/22 11:42:02;;;;;;;11.32;4.22;;;9.10;99.90;;;;;;4935617;29;20111;-86
2021/11/22 11:44:44;;;;;;;13.85;4.40;;;9.10;99.90;;;;;;4935772;29;20024;-86
2021/11/22 11:47:24;;;;;;;15.82;4.68;;;9.20;99.90;;;;;;4934218;29;20079;-86
2021/11/22 11:49:50;;;;;;;15.73;4.82;;;9.20;99.90;;;;;;4935602;29;20027;-86
2021/11/22 11:52:28;;;;;;;13.15;4.28;;;9.30;99.90;;;;;;4935193;29;20054;-85
2021/11/22 11:54:56;;;;;;;10.75;4.28;;;9.30;99.90;;;;;;4934976;29;20124;-86
2021/11/22 11:57:25;;;;;;;11.00;4.53;;;9.30;99.90;;;;;;4933887;29;20032;-85
2021/11/22 11:59:51;;;;;;;10.00;3.90;;;9.20;99.90;;;;;;4935216;29;20307;-86
2021/11/22 12:02:22;;;;;;;13.05;4.88;;;9.00;99.90;;;;;;4934025;29;20023;-86
2021/11/22 12:04:48;;;;;;;15.82;5.03;;;9.00;99.90;;;;;;4935259;29;20027;-86
2021/11/22 12:07:32;;;;;;;13.98;4.80;;;8.90;99.90;;;;;;4935189;29;20500;-86
2021/11/22 12:10:09;;;;;;;16.00;5.18;;;8.90;99.90;;;;;;4935176;29;20041;-85
2021/11/22 12:12:39;;;;;;;13.02;5.10;;;9.00;99.90;;;;;;4934991;29;20028;-86
2021/11/22 12:15:24;;;;;;;10.60;4.40;;;8.90;99.90;;;;;;4934993;29;20045;-85
2021/11/22 12:17:53;;;;;;;15.88;5.60;;;8.80;99.90;;;;;;4926732;29;20184;-86
2021/11/22 12:20:21;;;;;;;18.40;6.10;;;8.90;99.90;;;;;;4933647;29;20027;-85
2021/11/22 12:22:54;;;;;;;14.65;4.88;;;8.90;99.90;;;;;;4934930;29;20020;-86
2021/11/22 12:25:44;;;;;;;12.13;4.53;;;9.00;99.90;;;;;;4933849;29;20024;-86
2021/11/22 12:28:22;;;;;;;11.00;4.75;;;9.00;99.90;;;;;;4934809;29;20429;-86
2021/11/22 12:31:11;;;;;;;16.95;5.22;;;8.90;99.90;;;;;;4934730;29;20127;-86
2021/11/22 12:33:43;;;;;;;12.98;4.72;;;8.90;99.90;;;;;;4933625;29;20035;-86
2021/11/22 12:36:12;;;;;;;13.85;4.80;;;8.90;99.90;;;;;;4933404;29;20283;-86
2021/11/22 12:38:41;;;;;;;13.85;5.13;;;8.90;99.90;;;;;;4934540;29;20027;-86
2021/11/22 12:41:09;;;;;;;14.77;5.50;;;9.00;99.90;;;;;;4934602;29;20028;-86
2021/11/22 12:43:35;;;;;;;12.10;5.35;;;9.00;99.90;;;;;;4934419;29;20393;-89
2021/11/22 12:46:01;;;;;;;17.13;5.22;;;9.00;99.90;;;;;;4934588;29;20056;-87
2021/11/22 12:48:36;;;;;;;15.30;5.57;;;9.00;99.90;;;;;;4934147;29;20028;-87
2021/11/22 12:51:05;;;;;;;15.88;6.65;;;9.10;99.90;;;;;;4934463;29;20078;-87
2021/11/22 12:53:30;;;;;;;20.13;6.53;;;9.20;99.90;;;;;;4934084;29;20032;-87